地図

経路データ

SID SEASON NUMBER BASIN SUBBASIN NAME ISO_TIME NATURE LAT LON WMO_WIND WMO_PRES WMO_AGENCY TRACK_TYPE DIST2LAND LANDFALL IFLAG USA_AGENCY USA_ATCF_ID USA_LAT USA_LON USA_RECORD USA_STATUS USA_WIND USA_PRES USA_SSHS USA_R34_NE USA_R34_SE USA_R34_SW USA_R34_NW USA_R50_NE USA_R50_SE USA_R50_SW USA_R50_NW USA_R64_NE USA_R64_SE USA_R64_SW USA_R64_NW USA_POCI USA_ROCI USA_RMW USA_EYE TOKYO_LAT TOKYO_LON TOKYO_GRADE TOKYO_WIND TOKYO_PRES TOKYO_R50_DIR TOKYO_R50_LONG TOKYO_R50_SHORT TOKYO_R30_DIR TOKYO_R30_LONG TOKYO_R30_SHORT TOKYO_LAND CMA_LAT CMA_LON CMA_CAT CMA_WIND CMA_PRES HKO_LAT HKO_LON HKO_CAT HKO_WIND HKO_PRES NEWDELHI_LAT NEWDELHI_LON NEWDELHI_GRADE NEWDELHI_WIND NEWDELHI_PRES NEWDELHI_CI NEWDELHI_DP NEWDELHI_POCI REUNION_LAT REUNION_LON REUNION_TYPE REUNION_WIND REUNION_PRES REUNION_TNUM REUNION_CI REUNION_RMW REUNION_R34_NE REUNION_R34_SE REUNION_R34_SW REUNION_R34_NW REUNION_R50_NE REUNION_R50_SE REUNION_R50_SW REUNION_R50_NW REUNION_R64_NE REUNION_R64_SE REUNION_R64_SW REUNION_R64_NW BOM_LAT BOM_LON BOM_TYPE BOM_WIND BOM_PRES BOM_TNUM BOM_CI BOM_RMW BOM_R34_NE BOM_R34_SE BOM_R34_SW BOM_R34_NW BOM_R50_NE BOM_R50_SE BOM_R50_SW BOM_R50_NW BOM_R64_NE BOM_R64_SE BOM_R64_SW BOM_R64_NW BOM_ROCI BOM_POCI BOM_EYE BOM_POS_METHOD BOM_PRES_METHOD NADI_LAT NADI_LON NADI_CAT NADI_WIND NADI_PRES WELLINGTON_LAT WELLINGTON_LON WELLINGTON_WIND WELLINGTON_PRES DS824_LAT DS824_LON DS824_STAGE DS824_WIND DS824_PRES TD9636_LAT TD9636_LON TD9636_STAGE TD9636_WIND TD9636_PRES TD9635_LAT TD9635_LON TD9635_WIND TD9635_PRES TD9635_ROCI NEUMANN_LAT NEUMANN_LON NEUMANN_CLASS NEUMANN_WIND NEUMANN_PRES MLC_LAT MLC_LON MLC_CLASS MLC_WIND MLC_PRES USA_GUST BOM_GUST BOM_GUST_PER REUNION_GUST REUNION_GUST_PER USA_SEAHGT USA_SEARAD_NE USA_SEARAD_SE USA_SEARAD_SW USA_SEARAD_NW STORM_SPEED STORM_DIR
1924247N21138 1924 32 WP MM NOT_NAMED 1924-09-03 10:00:00 NR 20.6000 138.100 main 1376 1356 __________O___ -1 20.6000 138.100 7 7 285
1924247N21138 1924 32 WP MM NOT_NAMED 1924-09-03 12:00:00 NR 20.6556 137.874 main 1356 1335 __________P___ -1 20.6556 137.874 7 7 285
1924247N21138 1924 32 WP MM NOT_NAMED 1924-09-03 15:00:00 NR 20.7494 137.507 main 1335 1296 __________P___ -1 20.7494 137.507 7 8 286
1924247N21138 1924 32 WP MM NOT_NAMED 1924-09-03 18:00:00 NR 20.8699 137.069 main 1296 1257 __________P___ -1 20.8699 137.069 7 10 287
1924247N21138 1924 32 WP MM NOT_NAMED 1924-09-03 21:00:00 NR 21.0334 136.517 main 1257 1238 __________P___ -1 21.0334 136.517 7 11 288
1924247N21138 1924 32 WP MM NOT_NAMED 1924-09-03 22:00:00 NR 21.1000 136.300 main 1238 1196 __________O___ -1 21.1000 136.300 7 14 289
1924247N21138 1924 32 WP MM NOT_NAMED 1924-09-04 00:00:00 NR 21.2534 135.812 main 1196 1144 __________P___ -1 21.2534 135.812 7 16 289
1924247N21138 1924 32 WP MM NOT_NAMED 1924-09-04 03:00:00 NR 21.5268 134.978 main 1144 1081 __________P___ -1 21.5268 134.978 7 17 290
1924247N21138 1924 32 WP MM NOT_NAMED 1924-09-04 06:00:00 NR 21.8404 134.081 main 1081 1013 __________P___ -1 21.8404 134.081 7 18 291
1924247N21138 1924 32 WP MM NOT_NAMED 1924-09-04 09:00:00 NR 22.1819 133.186 main 1013 995 __________P___ -1 22.1819 133.186 7 18 293
1924247N21138 1924 32 WP MM NOT_NAMED 1924-09-04 10:00:00 NR 22.3000 132.900 main 995 951 __________O___ -1 22.3000 132.900 7 17 296
1924247N21138 1924 32 WP MM NOT_NAMED 1924-09-04 12:00:00 NR 22.5590 132.339 main 951 896 __________P___ -1 22.5590 132.339 7 17 298
1924247N21138 1924 32 WP MM NOT_NAMED 1924-09-04 15:00:00 NR 22.9676 131.529 main 896 848 __________P___ -1 22.9676 131.529 7 16 299
1924247N21138 1924 32 WP MM NOT_NAMED 1924-09-04 18:00:00 NR 23.3633 130.792 main 848 816 __________P___ -1 23.3633 130.792 7 14 301
1924247N21138 1924 32 WP MM NOT_NAMED 1924-09-04 21:00:00 NR 23.7051 130.173 main 816 806 __________P___ -1 23.7051 130.173 7 13 301
1924247N21138 1924 32 WP MM NOT_NAMED 1924-09-04 22:00:00 NR 23.8000 130.000 main 806 788 __________O___ -1 23.8000 130.000 3 9 300
1924247N21138 1924 32 WP MM NOT_NAMED 1924-09-05 00:00:00 NR 23.9334 129.736 main 788 764 __________P___ -1 23.9334 129.736 3 7 299
1924247N21138 1924 32 WP MM NOT_NAMED 1924-09-05 03:00:00 NR 24.0718 129.462 main 764 742 __________P___ -1 24.0718 129.462 3 5 299
1924247N21138 1924 32 WP MM NOT_NAMED 1924-09-05 06:00:00 NR 24.1695 129.267 main 742 721 __________P___ -1 24.1695 129.267 3 4 299
1924247N21138 1924 32 WP MM NOT_NAMED 1924-09-05 09:00:00 NR 24.2633 129.076 main 721 711 __________P___ -1 24.2633 129.076 3 4 298
1924247N21138 1924 32 WP MM NOT_NAMED 1924-09-05 10:00:00 NR 24.3000 129.000 main 711 689 __________O___ -1 24.3000 129.000 4 6 299
1924247N21138 1924 32 WP MM NOT_NAMED 1924-09-05 12:00:00 NR 24.4105 128.784 main 689 647 __________P___ -1 24.4105 128.784 4 7 299
1924247N21138 1924 32 WP MM NOT_NAMED 1924-09-05 15:00:00 NR 24.5889 128.428 main 647 605 __________P___ -1 24.5889 128.428 4 8 298
1924247N21138 1924 32 WP MM NOT_NAMED 1924-09-05 18:00:00 NR 24.7715 128.043 main 605 564 __________P___ -1 24.7715 128.043 4 8 296
1924247N21138 1924 32 WP MM NOT_NAMED 1924-09-05 21:00:00 NR 24.9458 127.638 main 564 553 __________P___ -1 24.9458 127.638 4 8 295
1924247N21138 1924 32 WP MM NOT_NAMED 1924-09-05 22:00:00 NR 25.0000 127.500 main 553 523 __________O___ -1 25.0000 127.500 4 8 293
1924247N21138 1924 32 WP MM NOT_NAMED 1924-09-06 00:00:00 NR 25.0997 127.236 main 523 483 __________P___ -1 25.0997 127.236 4 8 291
1924247N21138 1924 32 WP MM NOT_NAMED 1924-09-06 03:00:00 NR 25.2369 126.827 main 483 443 __________P___ -1 25.2369 126.827 4 8 289
1924247N21138 1924 32 WP MM NOT_NAMED 1924-09-06 06:00:00 NR 25.3594 126.401 main 444 405 __________P___ -1 25.3594 126.401 4 8 286
1924247N21138 1924 32 WP MM NOT_NAMED 1924-09-06 09:00:00 NR 25.4673 125.954 main 405 385 __________P___ -1 25.4673 125.954 4 8 285
1924247N21138 1924 32 WP MM NOT_NAMED 1924-09-06 10:00:00 NR 25.5000 125.800 main 385 357 __________O___ -1 25.5000 125.800 4 8 285
1924247N21138 1924 32 WP MM NOT_NAMED 1924-09-06 12:00:00 NR 25.5764 125.505 main 357 311 __________P___ -1 25.5764 125.505 4 8 285
1924247N21138 1924 32 WP MM NOT_NAMED 1924-09-06 15:00:00 NR 25.6791 125.044 main 311 266 __________P___ -1 25.6791 125.044 4 9 282
1924247N21138 1924 32 WP MM NOT_NAMED 1924-09-06 18:00:00 NR 25.7567 124.547 main 266 219 __________P___ -1 25.7567 124.547 4 10 277
1924247N21138 1924 32 WP MM NOT_NAMED 1924-09-06 21:00:00 NR 25.7970 123.997 main 219 201 __________P___ -1 25.7970 123.997 4 10 274
1924247N21138 1924 32 WP MM NOT_NAMED 1924-09-06 22:00:00 NR 25.8000 123.800 main 201 166 __________O___ -1 25.8000 123.800 4 11 270
1924247N21138 1924 32 WP MM NOT_NAMED 1924-09-07 00:00:00 NR 25.7946 123.387 main 166 105 __________P___ -1 25.7946 123.387 4 12 267
1924247N21138 1924 32 WP MM NOT_NAMED 1924-09-07 03:00:00 NR 25.7488 122.717 main 105 68 __________P___ -1 25.7488 122.717 4 13 264
1924247N21138 1924 32 WP MM NOT_NAMED 1924-09-07 06:00:00 NR 25.6636 122.001 main 68 34 __________P___ -1 25.6636 122.001 4 13 261
1924247N21138 1924 32 WP MM NOT_NAMED 1924-09-07 09:00:00 NR 25.5455 121.253 main 34 39 __________P___ -1 25.5455 121.253 4 14 260
1924247N21138 1924 32 WP MM NOT_NAMED 1924-09-07 10:00:00 NR 25.5000 121.000 main 48 48 __________O___ -1 25.5000 121.000 4 15 258
1924247N21138 1924 32 WP MM NOT_NAMED 1924-09-07 12:00:00 NR 25.3915 120.452 main 67 11 __________P___ -1 25.3915 120.452 4 15 257
1924247N21138 1924 32 WP MM NOT_NAMED 1924-09-07 15:00:00 NR 25.2028 119.611 main 11 0 __________P___ -1 25.2028 119.611 4 15 256
1924247N21138 1924 32 WP MM NOT_NAMED 1924-09-07 18:00:00 NR 25.0098 118.805 main 0 0 __________P___ -1 25.0098 118.805 4 14 255
1924247N21138 1924 32 WP MM NOT_NAMED 1924-09-07 21:00:00 NR 24.8438 118.101 main 0 0 __________P___ -1 24.8438 118.101 4 13 256
1924247N21138 1924 32 WP MM NOT_NAMED 1924-09-07 22:00:00 NR 24.8000 117.900 main 0 0 __________O___ -1 24.8000 117.900 4 10 257
1924247N21138 1924 32 WP MM NOT_NAMED 1924-09-08 00:00:00 NR 24.7393 117.587 main 0 0 __________P___ -1 24.7393 117.587 4 7 260
1924247N21138 1924 32 WP MM NOT_NAMED 1924-09-08 03:00:00 NR 24.6876 117.230 main 0 0 __________P___ -1 24.6876 117.230 4 6 264
1924247N21138 1924 32 WP MM NOT_NAMED 1924-09-08 06:00:00 NR 24.6746 116.952 main 0 0 __________P___ -1 24.6746 116.952 4 5 270
1924247N21138 1924 32 WP MM NOT_NAMED 1924-09-08 09:00:00 NR 24.6902 116.693 main 0 0 __________P___ -1 24.6902 116.693 4 5 275
1924247N21138 1924 32 WP MM NOT_NAMED 1924-09-08 10:00:00 NR 24.7000 116.600 main 0 0 __________O___ -1 24.7000 116.600 2 6 274
1924247N21138 1924 32 WP MM NOT_NAMED 1924-09-08 12:00:00 NR 24.7136 116.354 main 0 0 __________P___ -1 24.7136 116.354 2 7 275
1924247N21138 1924 32 WP MM NOT_NAMED 1924-09-08 15:00:00 NR 24.7530 115.971 main 0 0 __________P___ -1 24.7530 115.971 2 7 278
1924247N21138 1924 32 WP MM NOT_NAMED 1924-09-08 18:00:00 NR 24.8093 115.587 main 0 0 __________P___ -1 24.8093 115.587 2 7 280
1924247N21138 1924 32 WP MM NOT_NAMED 1924-09-08 21:00:00 NR 24.8763 115.217 main 0 0 __________P___ -1 24.8763 115.217 2 7 282
1924247N21138 1924 32 WP MM NOT_NAMED 1924-09-08 22:00:00 NR 24.9000 115.100 main 0 0 __________O___ -1 24.9000 115.100 2 6 283
1924247N21138 1924 32 WP MM NOT_NAMED 1924-09-09 00:00:00 NR 24.9439 114.888 main 0 0 __________P___ -1 24.9439 114.888 2 6 284
1924247N21138 1924 32 WP MM NOT_NAMED 1924-09-09 03:00:00 NR 25.0163 114.589 main 0 0 __________P___ -1 25.0163 114.589 2 6 286
1924247N21138 1924 32 WP MM NOT_NAMED 1924-09-09 06:00:00 NR 25.0939 114.299 main 0 0 __________P___ -1 25.0939 114.299 2 6 286
1924247N21138 1924 32 WP MM NOT_NAMED 1924-09-09 09:00:00 NR 25.1736 114.003 main 0 0 __________P___ -1 25.1736 114.003 2 6 286
1924247N21138 1924 32 WP MM NOT_NAMED 1924-09-09 10:00:00 NR 25.2000 113.900 main 0 0 __________O___ -1 25.2000 113.900 2 6 285
1924247N21138 1924 32 WP MM NOT_NAMED 1924-09-09 12:00:00 NR 25.2526 113.675 main 0 0 __________P___ -1 25.2526 113.675 2 6 284
1924247N21138 1924 32 WP MM NOT_NAMED 1924-09-09 15:00:00 NR 25.3316 113.326 main 0 0 __________P___ -1 25.3316 113.326 2 7 284
1924247N21138 1924 32 WP MM NOT_NAMED 1924-09-09 18:00:00 NR 25.4079 112.970 main 0 0 __________P___ -1 25.4079 112.970 2 7 283
1924247N21138 1924 32 WP MM NOT_NAMED 1924-09-09 21:00:00 NR 25.4783 112.616 main 0 0 __________P___ -1 25.4783 112.616 2 7 282
1924247N21138 1924 32 WP MM NOT_NAMED 1924-09-09 22:00:00 NR 25.5000 112.500 main 0 0 __________O___ -1 25.5000 112.500 2 6 282
1924247N21138 1924 32 WP MM NOT_NAMED 1924-09-10 00:00:00 NR 25.5414 112.280 main 0 0 __________P___ -1 25.5414 112.280 2 6 281
1924247N21138 1924 32 WP MM NOT_NAMED 1924-09-10 03:00:00 NR 25.5974 111.957 main 0 0 __________P___ -1 25.5974 111.957 2 6 280
1924247N21138 1924 32 WP MM NOT_NAMED 1924-09-10 06:00:00 NR 25.6462 111.636 main 0 0 __________P___ -1 25.6462 111.636 2 6 279
1924247N21138 1924 32 WP MM NOT_NAMED 1924-09-10 09:00:00 NR 25.6878 111.310 main 0 0 __________P___ -1 25.6878 111.310 2 6 278
1924247N21138 1924 32 WP MM NOT_NAMED 1924-09-10 10:00:00 NR 25.7000 111.200 main 0 0 __________O___ -1 25.7000 111.200 2 6 276
1924247N21138 1924 32 WP MM NOT_NAMED 1924-09-10 12:00:00 NR 25.7221 110.975 main 0 0 __________P___ -1 25.7221 110.975 2 6 276
1924247N21138 1924 32 WP MM NOT_NAMED 1924-09-10 15:00:00 NR 25.7501 110.630 main 0 0 __________P___ -1 25.7501 110.630 2 6 275
1924247N21138 1924 32 WP MM NOT_NAMED 1924-09-10 18:00:00 NR 25.7734 110.277 main 0 0 __________P___ -1 25.7734 110.277 2 6 274
1924247N21138 1924 32 WP MM NOT_NAMED 1924-09-10 21:00:00 NR 25.7937 109.919 main 0 0 __________P___ -1 25.7937 109.919 2 6 274
1924247N21138 1924 32 WP MM NOT_NAMED 1924-09-10 22:00:00 NR 25.8000 109.800 main 0 __________O___ -1 25.8000 109.800 2 6 273

デジタル台風データ・検索

IBTrACS Databaseについて

本データベースは、米国NOAAが公開する1842年以降の世界の熱帯低気圧のベストトラックデータアーカイブInternational Best Track Archive for Climate Stewardship (IBTrACS)を、ウェブで閲覧しやすい形式に変換したものです。

最終更新日:2021-12-01